• Join FlightAware (Why Join?)
  • Login
  • US Flag 
Trick or treat! (Boo!!) 
01:10PM EDT


 

Airport Tracker/Info


-or-


 

Live Flight TrackerFlight Track Log ✈ DAL370 ✈ 30-Mar-2014 ✈ KATL - KLAX

Flight Track Log - Related Links

Times and Time Zones

All times are in EDT time to prevent confusion due to time zone crossing. See the DAL370 flight status page for this flight to view local times or setup timezone preferences in your user account.

Time Position Orientation Groundspeed Altitude Reporting Facility
EDT Latitude Longitude Course Direction KTS MPH feet Rate Location/Type
03:47PM 33.6500 -84.4667 252° West 186 214 2,700  Level Atlanta TRACON
03:48PM 33.6667 -84.5500 284° West 246 283 5,300 1,980 Climbing Atlanta TRACON
03:50PM 33.6958 -84.7903 North 315 362 10,000 1,560 Climbing Atlanta Center
03:52PM 33.6736 -85.0122 260° West 366 421 12,400 1,800 Climbing Atlanta Center
03:53PM 33.6572 -85.0554 260° West  Level FlightAware Approximate
03:53PM 33.6619 -85.1344 263° West 372 428 15,400  Level Atlanta Center
03:54PM 33.6506 -85.2617 264° West 372 428 17,700 1,740 Climbing Atlanta Center
03:55PM 33.6533 -85.3964 271° West 395 455 18,900 1,260 Climbing Atlanta Center
03:56PM 33.6556 -85.5461 271° West 407 468 20,300 1,980 Climbing Atlanta Center
03:57PM 33.6603 -85.6836 272° West 412 474 22,900 2,100 Climbing Atlanta Center
03:58PM 33.6644 -85.8158 272° West 417 480 24,600 1,740 Climbing Atlanta Center
03:59PM 33.6856 -85.9536 280° West 412 474 26,400 2,040 Climbing Atlanta Center
04:00PM 33.7103 -86.0889 282° West 412 474 28,700 2,160 Climbing Atlanta Center
04:01PM 33.7372 -86.2219 284° West 412 474 30,800 1,620 Climbing Atlanta Center
04:02PM 33.7622 -86.3525 283° West 412 474 32,000 600 Climbing Atlanta Center
04:03PM 33.7844 -86.4858 281° West 412 474 32,000  Level Atlanta Center
04:04PM 33.8111 -86.6164 284° West 412 474 32,000  Level Atlanta Center
04:05PM 33.8353 -86.7497 282° West 412 474 32,000 540 Level Atlanta Center
04:07PM 33.8683 -86.9294 283° West 404 465 33,500 720 Climbing Memphis Center
04:08PM 33.8964 -87.0878 282° West 401 461 34,000 240 Climbing Memphis Center
04:09PM 33.9208 -87.2211 282° West 402 463 34,000  Level Memphis Center
04:15PM 34.0553 -88.0164 281° West 402 463 34,000  Level Memphis Center
04:16PM 34.0817 -88.1739 281° West 401 461 34,000  Level Memphis Center
04:17PM 34.1044 -88.3064 282° West 401 461 34,000  Level Memphis Center
04:18PM 34.1250 -88.4378 281° West 401 461 34,000  Level Memphis Center
04:19PM 34.1469 -88.5708 281° West 401 461 34,000  Level Memphis Center
04:20PM 34.1683 -88.7033 281° West 401 461 34,000  Level Memphis Center
04:21PM 34.1931 -88.8544 281° West 402 463 34,000  Level Memphis Center
04:22PM 34.1891 -88.8074 282° West  Level FlightAware Approximate
04:22PM 34.2133 -88.9881 280° West 404 465 34,000  Level Memphis Center
04:23PM 34.2096 -88.9344 281° West  Level FlightAware Approximate
04:23PM 34.2350 -89.1231 281° West 405 466 34,000  Level Memphis Center
04:24PM 34.2300 -89.0614 281° West  Level FlightAware Approximate
04:24PM 34.2564 -89.2564 281° West 405 466 34,000  Level Memphis Center
04:25PM 34.2502 -89.1886 281° West  Level FlightAware Approximate
04:26PM 34.2778 -89.3908 281° West 405 466 34,000  Level Memphis Center
04:27PM 34.3031 -89.5522 281° West 405 466 34,000  Level Memphis Center
04:28PM 34.3231 -89.6878 280° West 405 466 34,000  Level Memphis Center
04:29PM 34.3436 -89.8239 280° West 406 467 34,000  Level Memphis Center
04:30PM 34.3642 -89.9592 280° West 406 467 34,000  Level Memphis Center
04:31PM 34.3847 -90.0961 280° West 406 467 34,000  Level Memphis Center
04:32PM 34.4050 -90.2311 280° West 407 468 34,000  Level Memphis Center
04:33PM 34.4256 -90.3664 280° West 407 468 34,000  Level Memphis Center
04:34PM 34.4486 -90.5269 280° West 407 468 34,000  Level Memphis Center
04:35PM 34.4681 -90.6611 280° West 406 467 34,000  Level Memphis Center
04:36PM 34.4872 -90.7953 280° West 406 467 34,000  Level Memphis Center
04:37PM 34.5064 -90.9292 280° West 405 466 34,000  Level Memphis Center
04:38PM 34.5256 -91.0628 280° West 405 466 34,000  Level Memphis Center
04:39PM 34.5450 -91.1967 280° West 405 466 34,000  Level Memphis Center
04:40PM 34.5658 -91.3586 279° West 405 466 34,000  Level Memphis Center
04:41PM 34.5856 -91.4933 280° West 405 466 34,000  Level Memphis Center
04:42PM 34.6036 -91.6306 279° West 407 468 34,000  Level Memphis Center
04:43PM 34.6217 -91.7636 279° West 409 471 34,000  Level Memphis Center
04:44PM 34.6411 -91.9008 280° West 411 473 34,000  Level Memphis Center
04:45PM 34.6617 -92.0664 279° West 411 473 34,000  Level Memphis Center
04:46PM 34.6736 -92.2064 276° West 415 478 34,000  Level Memphis Center
04:47PM 34.6656 -92.3478 266° West 417 480 34,000  Level Memphis Center
04:48PM 34.6550 -92.4906 265° West 419 482 34,000  Level Memphis Center
04:49PM 34.6444 -92.6325 265° West 420 483 34,000  Level Memphis Center
04:50PM 34.6331 -92.7736 264° West 420 483 34,000  Level Memphis Center
04:51PM 34.6222 -92.9158 265° West 420 483 34,000  Level Memphis Center
04:52PM 34.6086 -93.0869 265° West 420 483 34,000  Level Memphis Center
04:53PM 34.5967 -93.2281 264° West 420 483 34,000  Level Memphis Center
04:54PM 34.5858 -93.3694 265° West 420 483 34,000  Level Memphis Center
04:56PM 34.5739 -93.5114 264° West 420 483 34,000  Level Memphis Center
04:57PM 34.5614 -93.6528 264° West 420 483 34,000  Level Memphis Center
04:58PM 34.5497 -93.7933 264° West 420 483 34,000  Level Memphis Center
04:59PM 34.5350 -93.9639 264° West 420 483 34,000  Level Memphis Center
05:00PM 34.5219 -94.1094 264° West 421 484 34,000  Level Memphis Center
05:00PM 34.5158 -94.1939 265° West 422 486 34,000  Level Fort Worth Center
05:01PM 34.5017 -94.3378 263° West 425 489 34,000  Level Fort Worth Center
05:02PM 34.4903 -94.4772 264° West 428 493 34,000  Level Fort Worth Center
05:03PM 34.4769 -94.6222 264° West 428 493 34,000  Level Fort Worth Center
05:04PM 34.4600 -94.7903 263° West 427 491 34,000  Level Fort Worth Center
05:05PM 34.4469 -94.9364 264° West 428 493 34,000  Level Fort Worth Center
05:07PM 34.4333 -95.0761 263° West 427 491 34,000  Level Fort Worth Center
05:08PM 34.4186 -95.2208 263° West 431 496 34,000  Level Fort Worth Center
05:09PM 34.4017 -95.3792 263° West 432 497 34,000  Level Fort Worth Center
05:10PM 34.3900 -95.5103 264° West 437 503 34,000  Level Fort Worth Center
05:11PM 34.3725 -95.6692 262° West 433 498 34,000  Level Fort Worth Center
05:12PM 34.3583 -95.8136 263° West 433 498 34,000  Level Fort Worth Center
05:13PM 34.3436 -95.9519 263° West 418 481 34,000  Level Fort Worth Center
05:14PM 34.3289 -96.0933 263° West 419 482 34,000  Level Fort Worth Center
05:15PM 34.3114 -96.2633 263° West 424 488 34,000  Level Fort Worth Center
05:16PM 34.2956 -96.4058 262° West 426 490 34,000  Level Fort Worth Center
05:17PM 34.2800 -96.5458 262° West 423 487 34,000  Level Fort Worth Center
05:18PM 34.2650 -96.6861 263° West 423 487 34,000  Level Fort Worth Center
05:19PM 34.2500 -96.8278 263° West 423 487 34,000  Level Fort Worth Center
05:20PM 34.2297 -96.9964 262° West 421 484 34,000  Level Fort Worth Center
05:21PM 34.2144 -97.1403 263° West 426 490 34,000  Level Fort Worth Center
05:22PM 34.2169 -97.2844 271° West 430 495 34,000  Level Fort Worth Center
05:23PM 34.2267 -97.4286 275° West 430 495 34,000  Level Fort Worth Center
05:24PM 34.2364 -97.5742 275° West 431 496 34,000  Level Fort Worth Center
05:25PM 34.2456 -97.7319 274° West 431 496 34,000  Level Fort Worth Center
05:26PM 34.2544 -97.8894 274° West 428 493 34,000  Level Fort Worth Center
05:27PM 34.2628 -98.0308 274° West 426 490 34,000  Level Fort Worth Center
05:28PM 34.2697 -98.1553 274° West 424 488 34,000  Level Fort Worth Center
05:29PM 34.2792 -98.3236 274° West 419 482 34,000  Level Fort Worth Center
05:30PM 34.2864 -98.4614 274° West 416 479 34,000  Level Fort Worth Center
05:31PM 34.2928 -98.5867 274° West 416 479 34,000  Level Fort Worth Center
05:32PM 34.3022 -98.7522 274° West 413 475 34,000  Level Fort Worth Center
05:33PM 34.3094 -98.8964 274° West 419 482 34,000  Level Fort Worth Center
05:34PM 34.3167 -99.0372 274° West 421 484 34,000  Level Fort Worth Center
05:35PM 34.3228 -99.1725 273° West 419 482 34,000  Level Fort Worth Center
05:37PM 34.3294 -99.3136 273° West 419 482 34,000  Level Fort Worth Center
05:38PM 34.3361 -99.4803 273° West 416 479 34,000  Level Fort Worth Center
05:39PM 34.3431 -99.6203 273° West 414 476 34,000  Level Fort Worth Center
05:40PM 34.3486 -99.7689 273° West 417 480 34,000  Level Fort Worth Center
05:41PM 34.3544 -99.8903 273° West 417 480 34,000  Level Fort Worth Center
05:42PM 34.3611 -100.0594 273° West 419 482 34,000  Level Fort Worth Center
05:43PM 34.3661 -100.1997 273° West 418 481 34,000  Level Fort Worth Center
05:44PM 34.3722 -100.3389 273° West 418 481 34,000  Level Fort Worth Center
05:45PM 34.3822 -100.4772 275° West 416 479 34,000 420 Level Fort Worth Center
05:46PM 34.3906 -100.6153 274° West 415 478 34,900 960 Climbing Fort Worth Center
05:47PM 34.3981 -100.7833 273° West 414 476 36,000 480 Climbing Albuquerque Center
05:48PM 34.4067 -100.9242 274° West 416 479 36,000  Level Albuquerque Center
05:49PM 34.4136 -101.0642 273° West 416 479 36,000  Level Albuquerque Center
05:50PM 34.4208 -101.2014 274° West 414 476 36,000  Level Albuquerque Center
05:51PM 34.4272 -101.3372 273° West 408 470 36,000  Level Albuquerque Center
05:52PM 34.4347 -101.4744 274° West 408 470 36,000  Level Albuquerque Center
05:53PM 34.4425 -101.6081 274° West 404 465 36,000  Level Albuquerque Center
05:54PM 34.4506 -101.7431 274° West 403 464 36,000  Level Albuquerque Center
05:55PM 34.4603 -101.9056 274° West 403 464 36,000  Level Albuquerque Center
05:56PM 34.4675 -102.0428 274° West 403 464 36,000  Level Albuquerque Center
05:57PM 34.4756 -102.1794 274° West 403 464 36,000  Level Albuquerque Center
05:58PM 34.4828 -102.3169 274° West 405 466 36,000  Level Albuquerque Center
05:59PM 34.4903 -102.4564 274° West 411 473 36,000  Level Albuquerque Center
06:00PM 34.4975 -102.5956 274° West 411 473 36,000  Level Albuquerque Center
06:01PM 34.5058 -102.7483 274° West 411 473 36,000  Level Albuquerque Center
06:02PM 34.5128 -102.8883 273° West 412 474 36,000  Level Albuquerque Center
06:03PM 34.5194 -103.0283 273° West 412 474 36,000  Level Albuquerque Center
06:04PM 34.5258 -103.1681 273° West 412 474 36,000  Level Albuquerque Center
06:05PM 34.5317 -103.3069 273° West 412 474 36,000  Level Albuquerque Center
06:06PM 34.5389 -103.4431 274° West 405 466 36,000  Level Albuquerque Center
06:07PM 34.5453 -103.6011 273° West 402 463 36,000  Level Albuquerque Center
06:08PM 34.5514 -103.7342 273° West 395 455 36,000  Level Albuquerque Center
06:10PM 34.5567 -103.8667 273° West 393 452 36,000  Level Albuquerque Center
06:11PM 34.5611 -103.9972 272° West 387 445 36,000  Level Albuquerque Center
06:12PM 34.5661 -104.1286 273° West 386 444 36,000  Level Albuquerque Center
06:13PM 34.5708 -104.2611 273° West 386 444 36,000  Level Albuquerque Center
06:14PM 34.5769 -104.3939 273° West 387 445 36,000  Level Albuquerque Center
06:15PM 34.5811 -104.5253 272° West 387 445 36,000  Level Albuquerque Center
06:16PM 34.5853 -104.6586 272° West 387 445 36,000  Level Albuquerque Center
06:17PM 34.5900 -104.7886 273° West 386 444 36,000  Level Albuquerque Center
06:18PM 34.5956 -104.9194 273° West 386 444 36,000  Level Albuquerque Center
06:19PM 34.6003 -105.0692 272° West 382 440 36,000  Level Albuquerque Center
06:20PM 34.6033 -105.1981 272° West 381 438 36,000  Level Albuquerque Center
06:21PM 34.6069 -105.3256 272° West 376 433 36,000  Level Albuquerque Center
06:22PM 34.6119 -105.4542 273° West 377 434 36,000  Level Albuquerque Center
06:23PM 34.6147 -105.5828 272° West 377 434 36,000  Level Albuquerque Center
06:24PM 34.6181 -105.7108 272° West 377 434 36,000  Level Albuquerque Center
06:25PM 34.6211 -105.8389 272° West 377 434 36,000  Level Albuquerque Center
06:26PM 34.6231 -105.9758 271° West 377 434 36,000  Level Albuquerque Center
06:27PM 34.6264 -106.1003 272° West 374 430 36,000  Level Albuquerque Center
06:28PM 34.6289 -106.2244 271° West 371 427 36,000  Level Albuquerque Center
06:29PM 34.6322 -106.3475 272° West 368 423 36,000  Level Albuquerque Center
06:30PM 34.6347 -106.4681 271° West 361 415 36,000  Level Albuquerque Center
06:31PM 34.6358 -106.5875 271° West 357 411 36,000  Level Albuquerque Center
06:32PM 34.6378 -106.7075 271° West 356 410 36,000  Level Albuquerque Center
06:33PM 34.6411 -106.8267 272° West 356 410 36,000  Level Albuquerque Center
06:34PM 34.6444 -106.9658 272° West 353 406 36,000  Level Albuquerque Center
06:35PM 34.6458 -107.0969 271° West 354 407 36,000  Level Albuquerque Center
06:36PM 34.6475 -107.2192 271° West 358 412 36,000  Level Albuquerque Center
06:37PM 34.6481 -107.3414 270° West 362 417 36,000  Level Albuquerque Center
06:38PM 34.6506 -107.4736 271° West 363 418 36,000  Level Albuquerque Center
06:39PM 34.6497 -107.5814 269° West 370 426 36,000  Level Albuquerque Center
06:40PM 34.6517 -107.7044 271° West 369 425 36,000  Level Albuquerque Center
06:41PM 34.6536 -107.8500 271° West 364 419 36,000  Level Albuquerque Center
06:42PM 34.6542 -107.9692 270° West 359 413 36,000  Level Albuquerque Center
06:43PM 34.6544 -108.0875 270° West 355 409 36,000  Level Albuquerque Center
06:44PM 34.6553 -108.2156 270° West 354 407 36,000  Level Albuquerque Center
06:45PM 34.6564 -108.3289 271° West 353 406 36,000  Level Albuquerque Center
06:47PM 34.6572 -108.4603 270° West 352 405 36,000  Level Albuquerque Center
06:48PM 34.6572 -108.5706 270° West 349 402 36,000  Level Albuquerque Center
06:49PM 34.6578 -108.6833 270° West 348 400 36,000  Level Albuquerque Center
06:50PM 34.6583 -108.8167 270° West 348 400 36,000  Level Albuquerque Center
06:51PM 34.6583 -108.9303 270° West 348 400 36,000  Level Albuquerque Center
06:52PM 34.6575 -109.0639 270° West 349 402 36,000  Level Albuquerque Center
06:53PM 34.6581 -109.1786 270° West 352 405 36,000  Level Albuquerque Center
06:54PM 34.6575 -109.2936 270° West 352 405 36,000  Level Albuquerque Center
06:55PM 34.6561 -109.4275 269° West 352 405 36,000  Level Albuquerque Center
06:56PM 34.6558 -109.5431 270° West 353 406 36,000  Level Albuquerque Center
06:57PM 34.6550 -109.6758 270° West 353 406 36,000  Level Albuquerque Center
06:58PM 34.6550 -109.7911 270° West 353 406 36,000  Level Albuquerque Center
06:59PM 34.6531 -109.9042 269° West 353 406 36,000  Level Albuquerque Center
07:00PM 34.6517 -110.0342 269° West 347 399 36,000  Level Albuquerque Center
07:01PM 34.6528 -110.1489 271° West 350 403 36,000  Level Albuquerque Center
07:02PM 34.6525 -110.2792 270° West 351 404 36,000  Level Albuquerque Center
07:03PM 34.6497 -110.3889 268° West 347 399 36,000  Level Albuquerque Center
07:04PM 34.6394 -110.5172 264° West 343 395 36,000  Level Albuquerque Center
07:06PM 34.6192 -110.7064 263° West 332 382 36,000  Level Los Angeles Center
07:07PM 34.6097 -110.8361 265° West 327 376 36,000  Level Los Angeles Center
07:08PM 34.6003 -110.9447 264° West 326 375 36,000  Level Los Angeles Center
07:09PM 34.5919 -111.0517 265° West 324 373 36,000  Level Los Angeles Center
07:10PM 34.5831 -111.1556 264° West 317 365 36,000  Level Los Angeles Center
07:11PM 34.5744 -111.2619 264° West 316 364 36,000  Level Los Angeles Center
07:12PM 34.5631 -111.3878 264° West 316 364 36,000  Level Los Angeles Center
07:13PM 34.5542 -111.4936 264° West 316 364 36,000  Level Los Angeles Center
07:14PM 34.5458 -111.5994 265° West 317 365 36,000  Level Albuquerque Center
07:15PM 34.5367 -111.7056 264° West 317 365 36,000  Level Albuquerque Center
07:16PM 34.5250 -111.8386 264° West 327 376 36,000  Level Albuquerque Center
07:17PM 34.5142 -111.9550 264° West 343 395 36,000  Level Albuquerque Center
07:18PM 34.5033 -112.0667 263° West 342 394 36,000  Level Albuquerque Center
07:19PM 34.4942 -112.1758 264° West 335 386 36,000  Level Albuquerque Center
07:20PM 34.4842 -112.2844 264° West 329 379 36,000  Level Albuquerque Center
07:21PM 34.4739 -112.4042 264° West 329 379 36,000  Level Albuquerque Center
07:22PM 34.4617 -112.5308 263° West 334 384 36,000  Level Albuquerque Center
07:24PM 34.4511 -112.6456 264° West 339 390 36,000  Level Albuquerque Center
07:25PM 34.4375 -112.7619 262° West 344 396 36,000  Level Albuquerque Center
07:26PM 34.4258 -112.8789 263° West 347 399 36,000  Level Albuquerque Center
07:27PM 34.4172 -112.9939 265° West 347 399 36,000  Level Albuquerque Center
07:28PM 34.4047 -113.1117 263° West 348 400 36,000  Level Albuquerque Center
07:29PM 34.3931 -113.2286 263° West 348 400 36,000  Level Albuquerque Center
07:30PM 34.3769 -113.3681 262° West 349 402 36,000  Level Albuquerque Center
07:31PM 34.3650 -113.4844 263° West 349 402 36,000  Level Albuquerque Center
07:32PM 34.3561 -113.5983 265° West 348 400 36,000  Level Albuquerque Center
07:33PM 34.3442 -113.7167 263° West 347 399 36,000  Level Albuquerque Center
07:34PM 34.3311 -113.8311 262° West 346 398 36,000  Level Albuquerque Center
07:35PM 34.3189 -113.9461 263° West 345 397 36,000  Level Albuquerque Center
07:36PM 34.3086 -114.0594 264° West 344 396 36,000  Level Albuquerque Center
07:37PM 34.2947 -114.1739 262° West 344 396 36,000  Level Albuquerque Center
07:38PM 34.2814 -114.3103 263° West 344 396 36,000 -240 Level Albuquerque Center
07:39PM 34.2675 -114.4275 262° West 344 396 35,600 -1,020 Descending Albuquerque Center
07:40PM 34.2542 -114.5422 262° West 345 397 34,000 -1,260 Descending Albuquerque Center
07:41PM 34.2408 -114.6844 264° West 353 406 32,900 -900 Descending Los Angeles Center
07:42PM 34.2281 -114.8017 263° West 353 406 32,000 -480 Descending Los Angeles Center
07:43PM 34.2139 -114.9200 262° West 353 406 32,000  Level Los Angeles Center
07:44PM 34.1997 -115.0389 262° West 356 410 32,000  Level Los Angeles Center
07:45PM 34.1864 -115.1581 262° West 356 410 32,000  Level Los Angeles Center
07:46PM 34.1694 -115.3006 262° West 357 411 32,000  Level Los Angeles Center
07:47PM 34.1547 -115.4200 262° West 358 412 32,000  Level Los Angeles Center
07:48PM 34.1408 -115.5392 262° West 359 413 32,000  Level Los Angeles Center
07:49PM 34.1267 -115.6586 262° West 359 413 32,000  Level Los Angeles Center
07:50PM 34.1122 -115.7764 262° West 360 414 32,000  Level Los Angeles Center
07:51PM 34.0950 -115.8950 260° West 359 413 32,000  Level Los Angeles Center
07:53PM 34.0725 -116.0339 259° West 359 413 32,000 -120 Level Los Angeles Center
07:54PM 34.0553 -116.1542 260° West 359 413 31,800 -1,440 Descending Los Angeles Center
07:55PM 34.0372 -116.2711 259° West 359 413 29,100 -2,100 Descending Los Angeles Center
07:56PM 34.0178 -116.4019 260° West 382 440 27,500 -1,500 Descending Los Angeles Center
07:57PM 34.0006 -116.5328 261° West 396 456 26,000 -1,560 Descending Los Angeles Center
07:58PM 33.9881 -116.6894 265° West 396 456 24,300 -1,680 Descending Los Angeles Center
07:59PM 33.9786 -116.8214 265° West 396 456 22,600 -1,980 Descending Los Angeles Center
08:00PM 33.9675 -116.9450 264° West 379 436 20,300 -2,280 Descending Los Angeles Center
08:01PM 33.9589 -117.0567 265° West 344 396 18,000 -1,860 Descending Los Angeles Center
08:02PM 33.9503 -117.1586 264° West 315 362 16,500 -1,140 Descending Los Angeles Center
08:03PM 33.9417 -117.2603 264° West 305 351 15,700 -900 Descending Los Angeles Center
08:04PM 33.9347 -117.3822 266° West 304 350 14,700 -840 Descending Los Angeles Center
08:05PM 33.9667 -117.4833 291° West 265 305 13,900 -840 Descending Southern California TRACON
08:06PM 34.0000 -117.5667 296° West 266 306 13,000 -1,020 Descending Southern California TRACON
08:07PM 34.0167 -117.6500 284° West 301 346 11,900 -1,380 Descending Southern California TRACON
08:08PM 34.0000 -117.7333 256° West 259 298 10,300 -1,500 Descending Southern California TRACON
08:09PM 34.0000 -117.8167 270° West 251 289 9,000 -1,500 Descending Southern California TRACON
08:10PM 33.9833 -117.9167 259° West 258 297 7,400 -1,500 Descending Southern California TRACON
08:11PM 33.9667 -118.0000 256° West 267 307 5,900 -1,200 Descending Southern California TRACON
08:12PM 33.9667 -118.0833 270° West 256 295 5,000 -1,140 Descending Southern California TRACON
08:13PM 33.9667 -118.1667 270° West 228 262 3,800 -1,200 Descending Southern California TRACON
08:14PM 33.9500 -118.2333 253° West 203 234 2,600 -1,080 Descending Southern California TRACON
08:15PM 33.9500 -118.2833 270° West 164 189 1,700 -840 Descending Southern California TRACON
08:16PM 33.9500 -118.3333 270° West 127 146 1,000 -720 Descending Southern California TRACON
08:17PM 33.9333 -118.3833 248° West 127 146 300 -660 Descending Southern California TRACON